Time;durP1;ratioP1;P1;durP2;ratioP2;P2;SDS_P1;SDS_P2;PMS_P1;PMS_P2;Temp;Humidity;BMP_temperature;BMP_pressure;BME280_temperature;BME280_humidity;BME280_pressure;Samples;Min_cycle;Max_cycle;Signal;HPM_P1;HPM_P2
2022/06/03 00:03:05;;;;;;;5.03;3.50;;;12.30;67.40;;;;;;2373858;56;21513;-73
2022/06/03 00:05:59;;;;;;;8.43;3.83;;;12.30;67.60;;;;;;2372817;56;21042;-74
2022/06/03 00:08:55;;;;;;;8.13;3.83;;;12.30;67.30;;;;;;2373851;56;21114;-74
2022/06/03 00:11:37;;;;;;;5.18;3.58;;;12.30;67.40;;;;;;2373860;56;21110;-74
2022/06/03 00:14:25;;;;;;;8.30;4.20;;;12.20;67.40;;;;;;2373782;56;21055;-74
2022/06/03 00:17:02;;;;;;;6.72;3.90;;;12.20;67.40;;;;;;2373620;56;21035;-74
2022/06/03 00:19:43;;;;;;;6.85;3.92;;;12.20;67.40;;;;;;2626804;52;21118;-73
2022/06/03 00:22:35;;;;;;;8.68;4.00;;;12.10;67.30;;;;;;2372636;56;21107;-73
2022/06/03 00:28:24;;;;;;;4.65;3.72;;;12.10;67.30;;;;;;2344085;57;22656;-73
2022/06/03 00:31:10;;;;;;;8.52;3.65;;;12.10;66.70;;;;;;2346721;57;21054;-73
2022/06/03 00:34:06;;;;;;;5.43;4.12;;;12.00;66.70;;;;;;2346778;57;21081;-76
2022/06/03 00:36:51;;;;;;;5.97;3.78;;;12.00;67.10;;;;;;2345750;57;21050;-72
2022/06/03 00:39:36;;;;;;;6.35;4.10;;;11.90;67.30;;;;;;2346537;57;21045;-72
2022/06/03 00:42:23;;;;;;;4.60;3.85;;;11.90;67.20;;;;;;2345998;57;21042;-75
2022/06/03 00:45:32;;;;;;;8.70;3.30;;;11.90;67.20;;;;;;2593183;52;21086;-75
2022/06/03 00:48:20;;;;;;;6.30;3.92;;;11.90;67.20;;;;;;2346631;57;21046;-75
2022/06/03 00:51:03;;;;;;;13.20;8.00;;;11.80;67.10;;;;;;2346630;57;21049;-75
2022/06/03 00:53:48;;;;;;;18.58;9.60;;;11.80;67.90;;;;;;2346443;57;21030;-73
2022/06/03 00:56:43;;;;;;;10.93;6.62;;;11.80;67.20;;;;;;2345281;57;21116;-73
2022/06/03 00:59:33;;;;;;;6.05;4.47;;;11.80;67.60;;;;;;2593819;52;21057;-75
2022/06/03 01:02:14;;;;;;;7.95;4.53;;;11.70;67.40;;;;;;2345529;57;21100;-75
2022/06/03 01:05:00;;;;;;;8.65;4.25;;;11.70;67.40;;;;;;2345969;57;21050;-76
2022/06/03 01:10:40;;;;;;;6.78;4.03;;;11.70;67.10;;;;;;2354901;57;22062;-73
2022/06/03 01:13:24;;;;;;;6.82;4.70;;;11.60;67.30;;;;;;2345924;57;21116;-72
2022/06/03 01:15:59;;;;;;;6.20;4.28;;;11.60;67.20;;;;;;2345828;57;21125;-73
2022/06/03 01:18:46;;;;;;;7.25;3.95;;;11.60;67.00;;;;;;2359283;56;21138;-73
2022/06/03 01:21:28;;;;;;;9.90;3.97;;;11.60;67.00;;;;;;2374050;56;21673;-73
2022/06/03 01:24:37;;;;;;;7.72;3.80;;;11.50;67.20;;;;;;2374085;56;21126;-73
2022/06/03 01:27:42;;;;;;;12.55;5.15;;;11.50;67.80;;;;;;2373080;56;21047;-76
2022/06/03 01:30:21;;;;;;;9.50;4.03;;;11.50;67.80;;;;;;2373893;56;21703;-73
2022/06/03 01:33:17;;;;;;;7.65;4.32;;;11.40;67.90;;;;;;2373388;56;21126;-73
2022/06/03 01:36:34;;;;;;;6.15;4.10;;;11.40;67.90;;;;;;2322226;56;21050;-73
2022/06/03 01:39:39;;;;;;;7.47;3.78;;;11.30;68.10;;;;;;2318509;56;21153;-76
2022/06/03 01:45:32;;;;;;;5.70;3.87;;;11.30;68.00;;;;;;2354744;57;22014;-73
2022/06/03 01:48:18;;;;;;;7.28;3.78;;;11.30;67.80;;;;;;2354178;56;21051;-72
2022/06/03 01:51:13;;;;;;;6.85;4.47;;;11.20;67.70;;;;;;2374225;56;21506;-73
2022/06/03 01:54:16;;;;;;;7.47;4.05;;;11.20;67.60;;;;;;2373749;56;21059;-76
2022/06/03 01:57:04;;;;;;;5.78;3.60;;;11.20;67.50;;;;;;2373301;56;21031;-75
2022/06/03 02:03:13;;;;;;;4.32;3.83;;;11.10;67.90;;;;;;2354731;57;22078;-74
2022/06/03 02:06:06;;;;;;;8.35;4.10;;;11.10;68.00;;;;;;2593408;53;21045;-74
2022/06/03 02:09:09;;;;;;;6.50;4.45;;;11.10;68.00;;;;;;2360330;56;21035;-74
2022/06/03 02:11:52;;;;;;;7.05;4.75;;;11.10;68.30;;;;;;2373823;56;21023;-74
2022/06/03 02:14:58;;;;;;;7.57;4.62;;;11.00;68.00;;;;;;2373559;56;21118;-73
2022/06/03 02:18:07;;;;;;;6.45;4.78;;;11.00;68.30;;;;;;2373906;56;21102;-73
2022/06/03 02:21:09;;;;;;;6.97;4.70;;;11.00;68.20;;;;;;2373321;56;21619;-75
2022/06/03 02:23:57;;;;;;;6.37;4.57;;;10.90;68.30;;;;;;2627496;52;21110;-76
2022/06/03 02:27:06;;;;;;;8.52;5.22;;;10.90;68.20;;;;;;2372936;56;21047;-75
2022/06/03 02:33:29;;;;;;;7.45;5.22;;;10.90;68.00;;;;;;2373955;56;21343;-72
2022/06/03 02:36:50;;;;;;;7.65;4.82;;;10.80;67.90;;;;;;2373750;56;21134;-75
2022/06/03 02:40:02;;;;;;;6.65;4.50;;;10.70;68.10;;;;;;2314961;56;21113;-75
2022/06/03 02:42:47;;;;;;;6.00;4.50;;;10.70;68.50;;;;;;2342349;56;21054;-73
2022/06/03 02:45:29;;;;;;;9.05;5.32;;;10.70;68.30;;;;;;2373006;56;21102;-73
2022/06/03 02:48:25;;;;;;;6.85;5.07;;;10.70;68.30;;;;;;2374165;56;21054;-73
2022/06/03 02:51:26;;;;;;;9.02;5.45;;;10.60;68.40;;;;;;2627408;52;21035;-76
2022/06/03 02:54:25;;;;;;;9.48;5.68;;;10.70;68.40;;;;;;2374175;56;21043;-73
2022/06/03 02:57:21;;;;;;;8.52;4.80;;;10.70;68.20;;;;;;2373455;56;21633;-74
2022/06/03 03:00:08;;;;;;;7.50;4.87;;;10.70;68.20;;;;;;2372408;56;21122;-74
2022/06/03 03:02:49;;;;;;;8.88;5.68;;;10.60;69.00;;;;;;2373926;56;21047;-75
2022/06/03 03:05:35;;;;;;;7.80;5.45;;;10.60;68.20;;;;;;2373178;56;21055;-75
2022/06/03 03:08:55;;;;;;;7.35;5.25;;;10.60;68.10;;;;;;2627122;52;21102;-74
2022/06/03 03:12:01;;;;;;;6.78;5.40;;;10.60;68.40;;;;;;2627271;52;21062;-73
2022/06/03 03:14:59;;;;;;;7.82;5.37;;;10.60;68.20;;;;;;2371680;56;21616;-74
2022/06/03 03:17:57;;;;;;;7.78;5.43;;;10.60;68.20;;;;;;2624764;52;21035;-76
2022/06/03 03:20:45;;;;;;;10.90;5.70;;;10.50;68.20;;;;;;2368267;56;21043;-74
2022/06/03 03:23:50;;;;;;;10.00;5.85;;;10.50;68.30;;;;;;2373140;56;21043;-74
2022/06/03 03:26:27;;;;;;;8.52;6.40;;;10.50;68.50;;;;;;2372696;56;21047;-74
2022/06/03 03:29:08;;;;;;;10.75;5.47;;;10.50;68.70;;;;;;2372831;56;21122;-74
2022/06/03 03:35:02;;;;;;;10.55;6.47;;;10.50;69.50;;;;;;2354611;57;22121;-74
2022/06/03 03:38:38;;;;;;;10.25;6.47;;;10.50;69.30;;;;;;2595716;52;21153;-76
2022/06/03 03:41:39;;;;;;;9.68;6.55;;;10.50;69.60;;;;;;2373948;56;21070;-74
2022/06/03 03:44:53;;;;;;;9.40;6.50;;;10.50;69.50;;;;;;2374037;56;21130;-76
2022/06/03 03:48:11;;;;;;;10.35;6.65;;;10.50;69.50;;;;;;2373385;56;21121;-75
2022/06/03 03:50:53;;;;;;;10.65;5.62;;;10.50;69.40;;;;;;2374003;56;21101;-73
2022/06/03 03:53:51;;;;;;;9.65;5.43;;;10.50;69.30;;;;;;2625420;52;21102;-74
2022/06/03 03:56:44;;;;;;;6.95;4.90;;;10.50;69.60;;;;;;2626655;52;21549;-76
2022/06/03 03:59:39;;;;;;;9.82;5.85;;;10.50;69.60;;;;;;2373286;56;21055;-75
2022/06/03 04:02:49;;;;;;;7.87;4.95;;;10.50;70.00;;;;;;2626320;52;21043;-76
2022/06/03 04:06:28;;;;;;;8.60;6.35;;;10.50;70.30;;;;;;2373110;56;21126;-76
2022/06/03 04:12:19;;;;;;;8.93;6.20;;;10.60;70.50;;;;;;2355318;57;22106;-75
2022/06/03 04:15:37;;;;;;;14.38;7.47;;;10.60;70.90;;;;;;2347195;57;21595;-77
2022/06/03 04:21:54;;;;;;;9.00;5.60;;;10.60;70.90;;;;;;2355731;57;22579;-75
2022/06/03 04:24:44;;;;;;;9.98;5.25;;;10.70;71.30;;;;;;2347368;57;21141;-76
2022/06/03 04:27:31;;;;;;;10.35;7.05;;;10.70;71.50;;;;;;2346912;57;21053;-76
2022/06/03 04:30:43;;;;;;;11.88;6.57;;;10.70;71.10;;;;;;2320436;58;21052;-75
2022/06/03 04:33:55;;;;;;;7.85;5.90;;;10.80;70.60;;;;;;2320438;58;21052;-76
2022/06/03 04:37:12;;;;;;;8.07;5.37;;;10.70;70.80;;;;;;2326279;54;21103;-75
2022/06/03 04:40:17;;;;;;;9.80;6.32;;;10.80;71.50;;;;;;2320153;58;21168;-75
2022/06/03 04:43:24;;;;;;;7.97;6.32;;;10.80;71.60;;;;;;2322420;54;21187;-76
2022/06/03 04:46:33;;;;;;;8.23;5.50;;;10.80;71.90;;;;;;2319829;58;21095;-76
2022/06/03 04:49:47;;;;;;;11.52;6.78;;;10.90;72.40;;;;;;2386123;54;21653;-75
2022/06/03 04:53:10;;;;;;;10.30;6.40;;;10.90;72.70;;;;;;2241100;58;21059;-75
2022/06/03 04:56:21;;;;;;;11.25;7.50;;;11.00;72.80;;;;;;2375176;54;21047;-76
2022/06/03 04:59:25;;;;;;;13.45;7.97;;;11.00;72.80;;;;;;2320326;58;21095;-75
2022/06/03 05:02:42;;;;;;;15.13;8.23;;;11.00;73.30;;;;;;2320473;58;21182;-76
2022/06/03 05:05:51;;;;;;;13.15;7.10;;;11.00;73.80;;;;;;2320274;58;21071;-75
2022/06/03 05:09:10;;;;;;;12.52;8.07;;;11.10;74.20;;;;;;2286532;58;21130;-76
2022/06/03 05:12:22;;;;;;;14.60;9.18;;;11.20;74.50;;;;;;2319764;58;21122;-76
2022/06/03 05:15:35;;;;;;;11.32;8.25;;;11.20;74.70;;;;;;2319879;58;21035;-76
2022/06/03 05:18:45;;;;;;;17.85;10.18;;;11.30;75.10;;;;;;2318809;58;21102;-75
2022/06/03 05:21:55;;;;;;;17.20;9.55;;;11.30;75.40;;;;;;2320074;57;21215;-77
2022/06/03 05:25:12;;;;;;;14.23;10.23;;;11.40;75.80;;;;;;2319726;58;21050;-76
2022/06/03 05:28:17;;;;;;;20.80;9.48;;;11.50;76.20;;;;;;2320725;58;21709;-77
2022/06/03 05:31:24;;;;;;;14.25;9.95;;;11.50;76.50;;;;;;2320509;58;21056;-76
2022/06/03 05:34:41;;;;;;;16.85;10.73;;;11.60;76.90;;;;;;2319743;58;21321;-76
2022/06/03 05:37:43;;;;;;;16.42;10.18;;;11.70;77.10;;;;;;2373093;54;21111;-76
2022/06/03 05:40:31;;;;;;;16.37;11.52;;;11.70;77.30;;;;;;2332930;54;21558;-76
2022/06/03 05:43:37;;;;;;;15.13;9.98;;;11.80;77.60;;;;;;2319790;58;21052;-75
2022/06/03 05:46:14;;;;;;;18.77;10.35;;;11.90;77.70;;;;;;2319396;58;21060;-77
2022/06/03 05:49:18;;;;;;;15.55;10.57;;;12.00;77.50;;;;;;2319789;58;21116;-75
2022/06/03 05:52:10;;;;;;;18.40;10.77;;;12.10;77.80;;;;;;2318531;58;21115;-77
2022/06/03 05:54:48;;;;;;;16.00;9.82;;;12.10;77.70;;;;;;2319550;58;21052;-76
2022/06/03 05:57:22;;;;;;;16.73;9.85;;;12.10;77.90;;;;;;2319417;58;21071;-76
2022/06/03 06:00:16;;;;;;;16.75;10.70;;;12.20;77.70;;;;;;2319632;58;21052;-75
2022/06/03 06:02:48;;;;;;;12.85;8.68;;;12.30;77.80;;;;;;2320177;58;21135;-76
2022/06/03 06:05:32;;;;;;;13.82;8.68;;;12.30;77.70;;;;;;2509244;53;21728;-76
2022/06/03 06:08:13;;;;;;;17.25;8.25;;;12.40;77.90;;;;;;2319471;58;21143;-75
2022/06/03 06:10:50;;;;;;;13.10;8.15;;;12.40;77.80;;;;;;2319556;58;21119;-76
2022/06/03 06:13:58;;;;;;;11.35;5.85;;;12.50;77.80;;;;;;2319473;58;21072;-75
2022/06/03 06:16:33;;;;;;;8.05;4.72;;;12.60;77.60;;;;;;2303292;58;21055;-77
2022/06/03 06:19:06;;;;;;;15.40;7.80;;;12.70;77.20;;;;;;2319297;58;21131;-76
2022/06/03 06:21:59;;;;;;;11.02;6.20;;;12.70;77.30;;;;;;2318973;58;21943;-77
2022/06/03 06:24:45;;;;;;;12.50;4.97;;;12.80;77.10;;;;;;2318897;58;21051;-77
2022/06/03 06:27:44;;;;;;;6.62;4.15;;;12.80;77.10;;;;;;2447922;54;21036;-77
2022/06/03 06:30:21;;;;;;;11.27;5.53;;;12.90;77.10;;;;;;2319017;58;21118;-77
2022/06/03 06:33:15;;;;;;;9.35;5.80;;;12.90;74.60;;;;;;2318665;58;21123;-76
2022/06/03 06:36:31;;;;;;;10.90;4.43;;;13.00;75.80;;;;;;2318927;58;21103;-77
2022/06/03 06:39:13;;;;;;;11.02;4.75;;;13.10;75.60;;;;;;2319104;58;21063;-77
2022/06/03 06:41:51;;;;;;;7.37;4.50;;;13.10;75.40;;;;;;2318788;58;21143;-76
2022/06/03 06:44:37;;;;;;;10.02;5.43;;;13.10;75.30;;;;;;2318858;58;21048;-76
2022/06/03 06:47:14;;;;;;;10.65;6.78;;;13.20;75.70;;;;;;2334851;54;21056;-78
2022/06/03 06:49:50;;;;;;;9.23;5.80;;;13.30;76.10;;;;;;2319071;58;21127;-76
2022/06/03 06:55:39;;;;;;;11.90;7.18;;;13.40;74.90;;;;;;2335363;57;27770;-75
2022/06/03 06:58:19;;;;;;;11.20;5.62;;;13.40;78.30;;;;;;2356088;56;21657;-76
2022/06/03 07:00:50;;;;;;;10.30;5.62;;;13.50;77.30;;;;;;2374690;56;21086;-78
2022/06/03 07:03:23;;;;;;;6.80;4.90;;;13.60;76.50;;;;;;2373301;56;21561;-78
2022/06/03 07:05:56;;;;;;;11.30;6.03;;;13.70;76.40;;;;;;2374749;56;21059;-78
2022/06/03 07:08:27;;;;;;;10.35;6.18;;;13.70;75.20;;;;;;2376501;52;21138;-78
2022/06/03 07:11:01;;;;;;;12.30;5.90;;;13.80;74.90;;;;;;2375630;56;21090;-78
2022/06/03 07:13:33;;;;;;;8.20;4.95;;;13.80;75.00;;;;;;2375453;56;21075;-78
2022/06/03 07:16:10;;;;;;;10.93;5.40;;;13.90;74.90;;;;;;2373610;56;21090;-78
2022/06/03 07:21:57;;;;;;;9.43;4.50;;;13.90;75.00;;;;;;2374396;52;21055;-76
2022/06/03 07:24:37;;;;;;;9.98;4.50;;;14.00;75.00;;;;;;2374658;56;21232;-76
2022/06/03 07:27:12;;;;;;;11.60;4.32;;;14.10;73.90;;;;;;2400733;52;21035;-76
2022/06/03 07:29:45;;;;;;;7.97;4.03;;;14.10;74.20;;;;;;2374730;56;21106;-75
2022/06/03 07:32:16;;;;;;;5.53;3.22;;;14.20;73.80;;;;;;2375312;56;21035;-75
2022/06/03 07:34:51;;;;;;;9.10;4.00;;;14.20;71.20;;;;;;2374910;56;21549;-76
2022/06/03 07:37:23;;;;;;;9.23;5.70;;;14.20;72.30;;;;;;2374163;56;21040;-76
2022/06/03 07:39:56;;;;;;;4.25;3.40;;;14.30;73.50;;;;;;2375368;56;21099;-76
2022/06/03 07:42:38;;;;;;;6.22;2.85;;;14.30;73.30;;;;;;2378624;52;21530;-78
2022/06/03 07:45:22;;;;;;;3.55;3.05;;;14.30;72.20;;;;;;2374758;56;21070;-76
2022/06/03 07:47:50;;;;;;;5.55;2.92;;;14.30;68.70;;;;;;2374312;56;21916;-76
2022/06/03 07:50:21;;;;;;;4.75;2.65;;;14.40;67.80;;;;;;2374601;56;21031;-76
2022/06/03 07:52:54;;;;;;;4.28;2.58;;;14.40;67.90;;;;;;2374694;56;21154;-76
2022/06/03 07:55:24;;;;;;;5.87;2.60;;;14.40;67.10;;;;;;2374049;56;21174;-75
2022/06/03 07:57:55;;;;;;;4.22;2.20;;;14.40;66.60;;;;;;2375524;56;21637;-78
2022/06/03 08:00:23;;;;;;;5.03;2.75;;;14.40;65.50;;;;;;2375975;56;21111;-78
2022/06/03 08:03:03;;;;;;;4.43;3.53;;;14.40;64.90;;;;;;2378533;52;21055;-79
2022/06/03 08:05:32;;;;;;;7.32;3.37;;;14.50;65.20;;;;;;2388639;52;21066;-77
2022/06/03 08:10:56;;;;;;;9.45;3.45;;;14.50;65.50;;;;;;2373262;52;21011;-76
2022/06/03 08:13:25;;;;;;;5.25;3.45;;;14.60;65.60;;;;;;2374132;56;21059;-76
2022/06/03 08:15:57;;;;;;;6.53;3.87;;;14.60;65.20;;;;;;2374182;56;21118;-76
2022/06/03 08:18:29;;;;;;;6.10;4.80;;;14.60;65.30;;;;;;2373918;56;21173;-76
2022/06/03 08:21:00;;;;;;;5.57;3.97;;;14.70;65.80;;;;;;2374323;56;21656;-76
2022/06/03 08:23:31;;;;;;;4.35;3.37;;;14.70;65.30;;;;;;2374474;56;21035;-78
2022/06/03 08:26:02;;;;;;;7.37;4.20;;;14.80;65.10;;;;;;2408457;52;21129;-78
2022/06/03 08:28:33;;;;;;;6.25;4.50;;;14.80;64.60;;;;;;2374170;56;21201;-78
2022/06/03 08:31:04;;;;;;;9.57;4.57;;;14.90;64.40;;;;;;2375232;56;21054;-78
2022/06/03 08:33:38;;;;;;;7.20;4.47;;;14.90;64.40;;;;;;2375552;56;21078;-79
2022/06/03 08:36:07;;;;;;;8.23;5.00;;;14.90;64.60;;;;;;2374996;56;21527;-79
2022/06/03 08:38:41;;;;;;;7.97;4.55;;;15.00;64.80;;;;;;2375243;56;21114;-78
2022/06/03 08:41:25;;;;;;;6.50;3.75;;;15.10;64.70;;;;;;2375507;56;21054;-78
2022/06/03 08:46:37;;;;;;;5.87;3.50;;;15.10;65.20;;;;;;2355003;57;22082;-77
2022/06/03 08:49:09;;;;;;;7.82;4.12;;;15.20;61.20;;;;;;2367586;56;21098;-77
2022/06/03 08:51:40;;;;;;;6.78;3.87;;;15.20;61.80;;;;;;2389643;52;21039;-77
2022/06/03 08:54:18;;;;;;;5.78;3.22;;;15.20;62.20;;;;;;2374860;56;21042;-76
2022/06/03 08:56:49;;;;;;;5.05;2.92;;;15.30;62.80;;;;;;2375016;52;21098;-77
2022/06/03 08:59:22;;;;;;;5.05;2.67;;;15.30;61.80;;;;;;2450011;52;21067;-78
2022/06/03 09:01:54;;;;;;;6.22;2.78;;;15.40;61.20;;;;;;2374188;56;21114;-77
2022/06/03 09:04:30;;;;;;;5.72;2.67;;;15.40;59.70;;;;;;2374827;56;21062;-79
2022/06/03 09:07:06;;;;;;;4.53;2.28;;;15.50;59.20;;;;;;2378456;52;21063;-78
2022/06/03 09:09:41;;;;;;;5.18;2.83;;;15.50;59.10;;;;;;2385783;52;21055;-78
2022/06/03 09:12:16;;;;;;;6.18;3.20;;;15.60;59.40;;;;;;2375081;56;21063;-78
2022/06/03 09:14:46;;;;;;;4.35;2.58;;;15.70;59.50;;;;;;2375555;52;21102;-77
2022/06/03 09:17:29;;;;;;;3.05;2.42;;;15.70;58.90;;;;;;2374294;56;21039;-77
2022/06/03 09:19:59;;;;;;;5.83;2.50;;;15.80;58.60;;;;;;2373787;56;21035;-78
2022/06/03 09:22:31;;;;;;;4.93;2.10;;;15.80;58.10;;;;;;2375067;56;21521;-79
2022/06/03 09:25:02;;;;;;;7.25;2.10;;;15.90;57.80;;;;;;2373870;56;21064;-78
2022/06/03 09:27:31;;;;;;;4.10;2.20;;;15.90;57.10;;;;;;2373539;56;21019;-78
2022/06/03 09:30:02;;;;;;;2.75;1.87;;;16.00;57.20;;;;;;2374303;56;21569;-78
2022/06/03 09:32:38;;;;;;;2.90;1.70;;;16.10;56.90;;;;;;2373045;56;21031;-78
2022/06/03 09:35:09;;;;;;;2.50;1.70;;;16.10;57.00;;;;;;2373441;56;21070;-78
2022/06/03 09:40:18;;;;;;;2.28;1.50;;;16.10;56.60;;;;;;2334131;57;27762;-77
2022/06/03 09:42:50;;;;;;;3.58;1.50;;;16.20;58.30;;;;;;2346018;57;21136;-78
2022/06/03 09:45:20;;;;;;;1.92;1.70;;;16.30;58.50;;;;;;2346099;55;21128;-78
2022/06/03 09:50:26;;;;;;;3.65;1.70;;;16.40;56.40;;;;;;2335581;57;22111;-78
2022/06/03 09:53:04;;;;;;;4.40;1.95;;;16.40;57.40;;;;;;2346999;57;21030;-79
2022/06/03 09:55:36;;;;;;;3.47;1.30;;;16.40;56.80;;;;;;2348235;57;21058;-78
2022/06/03 09:58:06;;;;;;;3.03;1.50;;;16.40;57.10;;;;;;2347452;57;21037;-78
2022/06/03 10:00:40;;;;;;;1.60;1.20;;;16.50;56.20;;;;;;2346866;55;21664;-78
2022/06/03 10:03:08;;;;;;;2.37;1.10;;;16.50;55.70;;;;;;2416615;53;21782;-78
2022/06/03 10:05:35;;;;;;;3.15;1.20;;;16.50;54.80;;;;;;2347333;57;21640;-77
2022/06/03 10:08:05;;;;;;;2.47;1.10;;;16.50;53.40;;;;;;2347764;57;21025;-79
2022/06/03 10:13:20;;;;;;;3.55;1.08;;;16.50;52.70;;;;;;2357502;57;21065;-74
2022/06/03 10:15:53;;;;;;;1.23;1.00;;;16.60;52.90;;;;;;2358970;57;21696;-74
2022/06/03 10:18:29;;;;;;;2.47;1.00;;;16.60;53.00;;;;;;2361607;57;21041;-74
2022/06/03 10:21:00;;;;;;;1.95;1.25;;;16.60;52.60;;;;;;2364107;56;21100;-74
2022/06/03 10:23:32;;;;;;;1.40;1.10;;;16.60;52.10;;;;;;2364182;57;21077;-75
2022/06/03 10:26:01;;;;;;;2.25;1.20;;;16.70;52.50;;;;;;2363909;57;21065;-75
2022/06/03 10:28:34;;;;;;;4.47;1.30;;;16.70;52.00;;;;;;2363791;57;21045;-75
2022/06/03 10:31:04;;;;;;;1.75;1.08;;;16.80;52.30;;;;;;2363038;57;21104;-75
2022/06/03 10:33:33;;;;;;;2.58;1.42;;;16.90;52.40;;;;;;2364310;57;21057;-74
2022/06/03 10:36:02;;;;;;;1.27;1.17;;;17.00;52.80;;;;;;2363264;57;21058;-75
2022/06/03 10:38:32;;;;;;;2.45;1.27;;;17.10;51.90;;;;;;2364193;57;21168;-75
2022/06/03 10:41:05;;;;;;;2.45;1.08;;;17.20;51.30;;;;;;2363962;57;21030;-73
2022/06/03 10:43:36;;;;;;;4.55;1.50;;;17.30;51.90;;;;;;2364007;57;21104;-75
2022/06/03 10:46:13;;;;;;;2.75;1.40;;;17.40;51.90;;;;;;2613113;52;21048;-74
2022/06/03 10:48:41;;;;;;;3.22;1.40;;;17.50;52.80;;;;;;2363858;57;21108;-75
2022/06/03 10:51:18;;;;;;;2.78;1.48;;;17.70;52.50;;;;;;2364053;57;21091;-75
2022/06/03 11:02:39;;;;;;;3.42;1.25;;;18.40;52.00;;;;;;2307963;57;21033;-76
2022/06/03 11:05:21;;;;;;;2.45;1.23;;;18.40;52.30;;;;;;2347123;57;21046;-75
2022/06/03 11:07:59;;;;;;;2.40;1.15;;;18.60;51.70;;;;;;2347418;57;21153;-75
2022/06/03 11:10:30;;;;;;;1.87;1.30;;;18.70;51.00;;;;;;2347328;57;21547;-75
2022/06/03 11:13:02;;;;;;;3.05;1.20;;;18.90;50.70;;;;;;2347183;57;21038;-76
2022/06/03 11:15:35;;;;;;;1.52;1.17;;;19.00;50.70;;;;;;2346879;57;21101;-75
2022/06/03 11:18:16;;;;;;;4.07;1.60;;;19.20;48.30;;;;;;2345860;57;21411;-74
2022/06/03 11:20:47;;;;;;;3.15;1.33;;;19.30;48.00;;;;;;2345484;57;21157;-75
2022/06/03 11:23:15;;;;;;;3.08;1.00;;;19.50;47.40;;;;;;2346991;57;21060;-75
2022/06/03 11:25:46;;;;;;;1.58;0.90;;;19.70;47.40;;;;;;2346516;57;21037;-75
2022/06/03 11:28:17;;;;;;;1.08;0.73;;;19.90;47.20;;;;;;2593229;53;21026;-74
2022/06/03 11:30:51;;;;;;;1.80;0.90;;;20.00;47.20;;;;;;2347262;57;21105;-75
2022/06/03 11:33:20;;;;;;;;;;;20.10;44.40;;;;;;2350446;57;21057;-74
2022/06/03 11:35:53;;;;;;;1.55;1.00;;;20.10;45.80;;;;;;2346344;57;20053;-76
2022/06/03 11:38:28;;;;;;;2.28;1.02;;;20.40;46.50;;;;;;2347056;57;21037;-75
2022/06/03 11:41:00;;;;;;;3.22;1.33;;;20.60;45.80;;;;;;2347230;57;21057;-76
2022/06/03 11:43:34;;;;;;;0.80;0.80;;;20.70;44.20;;;;;;2347278;57;21042;-76
2022/06/03 11:46:03;;;;;;;;;;;20.90;45.60;;;;;;2349799;57;21045;-76
2022/06/03 11:48:34;;;;;;;1.12;1.00;;;20.90;46.10;;;;;;2347198;57;20113;-76
2022/06/03 11:51:02;;;;;;;2.50;1.15;;;21.10;44.10;;;;;;2346934;57;21034;-75
2022/06/03 11:53:33;;;;;;;2.25;0.93;;;21.30;43.60;;;;;;2346684;57;21053;-76
2022/06/03 11:56:03;;;;;;;1.45;0.93;;;21.50;43.40;;;;;;2346722;57;21025;-75
2022/06/03 11:58:45;;;;;;;2.05;0.90;;;21.60;43.30;;;;;;2346865;57;21132;-76
2022/06/03 12:01:18;;;;;;;2.17;1.35;;;21.70;43.00;;;;;;2346868;57;21616;-76
2022/06/03 12:03:52;;;;;;;1.70;1.00;;;21.80;42.30;;;;;;2346531;57;21109;-75
2022/06/03 12:06:26;;;;;;;1.00;0.90;;;21.80;41.00;;;;;;2346625;57;21049;-76
2022/06/03 12:09:01;;;;;;;1.20;0.77;;;22.00;42.10;;;;;;2346732;57;21539;-76
2022/06/03 12:14:33;;;;;;;2.85;1.10;;;22.30;42.00;;;;;;2346212;57;20982;-76
2022/06/03 12:17:26;;;;;;;1.60;0.90;;;22.40;42.60;;;;;;2345188;57;21109;-74
2022/06/03 12:19:54;;;;;;;1.60;0.90;;;22.50;43.50;;;;;;2346110;57;21116;-76
2022/06/03 12:22:35;;;;;;;2.75;1.00;;;22.60;42.60;;;;;;2345985;57;21124;-75
2022/06/03 12:25:04;;;;;;;1.62;1.00;;;22.70;42.90;;;;;;2346279;57;21500;-76
2022/06/03 12:27:35;;;;;;;1.37;1.23;;;22.70;39.60;;;;;;2345414;57;21098;-76
2022/06/03 12:30:18;;;;;;;2.22;0.80;;;22.70;39.10;;;;;;2346274;57;21030;-76
2022/06/03 12:32:53;;;;;;;1.42;1.05;;;22.80;41.70;;;;;;2346491;57;21101;-75
2022/06/03 12:35:49;;;;;;;1.02;0.90;;;22.90;39.90;;;;;;2345257;57;21104;-75
2022/06/03 12:38:39;;;;;;;1.58;0.90;;;22.90;38.80;;;;;;2346070;57;21683;-75
2022/06/03 12:41:07;;;;;;;1.40;0.90;;;23.00;39.10;;;;;;2345996;57;21109;-75
2022/06/03 12:44:00;;;;;;;1.77;1.10;;;23.10;39.60;;;;;;2345817;57;21054;-75
2022/06/03 12:46:44;;;;;;;2.22;0.95;;;23.10;38.50;;;;;;2592689;53;21066;-75
2022/06/03 12:49:18;;;;;;;;;;;23.30;39.20;;;;;;2349550;57;21050;-76
2022/06/03 12:52:01;;;;;;;1.85;0.88;;;23.30;40.20;;;;;;2345616;57;20156;-75
2022/06/03 12:54:29;;;;;;;1.60;1.00;;;23.40;40.50;;;;;;2346125;57;21105;-76
2022/06/03 12:57:05;;;;;;;1.70;0.88;;;23.40;38.60;;;;;;2592490;53;21352;-75
2022/06/03 12:59:43;;;;;;;0.93;0.65;;;23.50;38.90;;;;;;2592855;53;21042;-76
2022/06/03 13:02:17;;;;;;;2.35;0.95;;;23.60;39.20;;;;;;2345195;57;21022;-75
2022/06/03 13:05:08;;;;;;;1.58;0.90;;;23.70;38.40;;;;;;2346029;57;21045;-76
2022/06/03 13:07:57;;;;;;;2.12;1.12;;;23.70;38.90;;;;;;2346139;57;21045;-75
2022/06/03 13:10:31;;;;;;;1.40;0.90;;;23.70;39.60;;;;;;2346110;57;21125;-75
2022/06/03 13:13:34;;;;;;;3.12;1.12;;;23.70;38.30;;;;;;2345129;57;21659;-75
2022/06/03 13:16:23;;;;;;;2.23;1.00;;;23.90;38.40;;;;;;2346646;57;21034;-75
2022/06/03 13:18:52;;;;;;;1.50;1.10;;;24.00;39.20;;;;;;2346739;57;21519;-75
2022/06/03 13:21:26;;;;;;;1.10;1.00;;;24.00;37.90;;;;;;2346836;57;21109;-75
2022/06/03 13:24:20;;;;;;;1.42;0.88;;;24.00;39.40;;;;;;2345173;57;21069;-75
2022/06/03 13:27:06;;;;;;;3.05;1.17;;;24.10;38.60;;;;;;2346030;57;21029;-75
2022/06/03 13:30:04;;;;;;;2.42;1.20;;;24.20;39.50;;;;;;2346380;57;21038;-76
2022/06/03 13:35:57;;;;;;;1.08;0.90;;;24.20;38.30;;;;;;2354987;57;22596;-75
2022/06/03 13:38:38;;;;;;;1.65;0.90;;;24.30;37.20;;;;;;2359687;56;21105;-76
2022/06/03 13:44:10;;;;;;;0.98;0.80;;;24.30;35.20;;;;;;2373788;56;21069;-76
2022/06/03 13:46:39;;;;;;;1.25;0.80;;;24.30;36.30;;;;;;2374192;56;21063;-76
2022/06/03 13:49:23;;;;;;;1.25;0.70;;;24.20;34.40;;;;;;2373484;56;21102;-75
2022/06/03 13:52:03;;;;;;;1.77;1.00;;;24.20;36.00;;;;;;2373697;56;21051;-74
2022/06/03 13:54:42;;;;;;;3.55;1.25;;;24.30;37.70;;;;;;2374778;56;21129;-79
2022/06/03 13:57:29;;;;;;;2.40;1.00;;;24.20;36.60;;;;;;2375197;56;21548;-76
2022/06/03 14:00:18;;;;;;;2.42;0.98;;;24.30;37.70;;;;;;2375386;56;21094;-79
2022/06/03 14:02:48;;;;;;;1.58;0.98;;;24.30;38.30;;;;;;2375831;56;21090;-80
2022/06/03 14:05:28;;;;;;;2.72;1.00;;;24.30;38.10;;;;;;2375966;56;21102;-78
2022/06/03 14:07:59;;;;;;;1.17;1.08;;;24.30;37.20;;;;;;2374647;56;21162;-77
2022/06/03 14:10:33;;;;;;;1.00;0.80;;;24.20;37.80;;;;;;2628465;52;21059;-78
2022/06/03 14:13:03;;;;;;;1.87;1.10;;;24.20;37.80;;;;;;2373086;56;21093;-78
2022/06/03 14:15:38;;;;;;;1.58;0.80;;;24.30;37.90;;;;;;2374846;56;21081;-79
2022/06/03 14:18:07;;;;;;;1.80;1.10;;;24.30;38.90;;;;;;2375228;56;21058;-78
2022/06/03 14:20:37;;;;;;;2.35;0.90;;;24.40;37.80;;;;;;2628950;52;21046;-79
2022/06/03 14:23:26;;;;;;;1.42;0.93;;;24.50;37.90;;;;;;2375096;56;21046;-78
2022/06/03 14:26:01;;;;;;;1.80;1.17;;;24.50;37.30;;;;;;2372523;56;21100;-80
2022/06/03 14:28:38;;;;;;;2.80;1.00;;;24.60;37.80;;;;;;2628205;52;21091;-76
2022/06/03 14:31:20;;;;;;;1.75;1.20;;;24.60;36.40;;;;;;2626839;52;21059;-77
2022/06/03 14:33:51;;;;;;;1.00;0.83;;;24.50;35.70;;;;;;2374795;56;21055;-79
2022/06/03 14:36:19;;;;;;;2.12;1.00;;;24.60;36.50;;;;;;2375050;56;21125;-79
2022/06/03 14:38:51;;;;;;;2.78;0.93;;;24.60;36.70;;;;;;2375430;56;21549;-79
2022/06/03 14:41:27;;;;;;;1.30;0.88;;;24.60;37.00;;;;;;2375343;56;21109;-79
2022/06/03 14:43:56;;;;;;;2.47;0.90;;;24.60;36.90;;;;;;2375070;56;21101;-79
2022/06/03 14:46:34;;;;;;;2.97;1.17;;;24.60;38.00;;;;;;2373271;56;21027;-79
2022/06/03 14:49:05;;;;;;;1.08;0.65;;;24.70;37.80;;;;;;2373797;56;21043;-79
2022/06/03 14:51:36;;;;;;;1.85;1.52;;;24.70;38.50;;;;;;2374008;56;21110;-79
2022/06/03 14:54:08;;;;;;;1.60;1.00;;;24.70;36.00;;;;;;2373745;56;21565;-80
2022/06/03 14:56:40;;;;;;;1.42;0.90;;;24.60;34.20;;;;;;2627277;52;21030;-80
2022/06/03 14:59:16;;;;;;;1.90;1.27;;;24.50;35.90;;;;;;2374002;56;21055;-80
2022/06/03 15:04:29;;;;;;;2.45;1.20;;;24.60;38.10;;;;;;2328652;57;22087;-74
2022/06/03 15:07:01;;;;;;;1.42;0.80;;;24.60;37.50;;;;;;2594930;53;21082;-75
2022/06/03 15:09:34;;;;;;;1.42;0.95;;;24.70;38.00;;;;;;2347010;57;21171;-74
2022/06/03 15:12:04;;;;;;;2.28;1.00;;;24.70;36.20;;;;;;2589362;52;21049;-75
2022/06/03 15:14:32;;;;;;;1.70;1.10;;;24.80;37.60;;;;;;2592556;53;21121;-75
2022/06/03 15:17:03;;;;;;;2.03;1.10;;;24.80;37.60;;;;;;2345611;57;21523;-75